sensor_id;sensor_type;location;lat;lon;timestamp;P1;durP1;ratioP1;P2;durP2;ratioP2
19946;SDS011;10135;50.702;7.276;2022-09-23T05:32:15;2.30;;;2.10;;
19946;SDS011;10135;50.702;7.276;2022-09-23T05:34:16;2.30;;;2.10;;
19946;SDS011;10135;50.702;7.276;2022-09-23T05:36:19;2.53;;;1.90;;
19946;SDS011;10135;50.702;7.276;2022-09-23T05:38:21;2.10;;;2.00;;
19946;SDS011;10135;50.702;7.276;2022-09-23T05:40:21;3.83;;;2.20;;
19946;SDS011;10135;50.702;7.276;2022-09-23T05:42:22;2.50;;;2.30;;
19946;SDS011;10135;50.702;7.276;2022-09-23T05:44:23;2.67;;;2.47;;
19946;SDS011;10135;50.702;7.276;2022-09-23T05:46:27;6.00;;;2.37;;
19946;SDS011;10135;50.702;7.276;2022-09-23T05:48:30;4.43;;;2.40;;
19946;SDS011;10135;50.702;7.276;2022-09-23T05:50:32;3.40;;;2.47;;
19946;SDS011;10135;50.702;7.276;2022-09-23T05:52:32;2.47;;;2.23;;
19946;SDS011;10135;50.702;7.276;2022-09-23T05:54:33;2.60;;;2.40;;
19946;SDS011;10135;50.702;7.276;2022-09-23T05:56:35;2.80;;;2.13;;
19946;SDS011;10135;50.702;7.276;2022-09-23T05:58:36;3.67;;;2.33;;
19946;SDS011;10135;50.702;7.276;2022-09-23T06:00:38;4.13;;;2.60;;
19946;SDS011;10135;50.702;7.276;2022-09-23T06:02:40;2.53;;;2.33;;
19946;SDS011;10135;50.702;7.276;2022-09-23T06:04:40;3.60;;;2.10;;
19946;SDS011;10135;50.702;7.276;2022-09-23T06:06:42;2.67;;;2.30;;
19946;SDS011;10135;50.702;7.276;2022-09-23T06:08:43;2.50;;;2.30;;
19946;SDS011;10135;50.702;7.276;2022-09-23T06:10:46;2.23;;;2.13;;
19946;SDS011;10135;50.702;7.276;2022-09-23T06:12:47;4.67;;;2.13;;
19946;SDS011;10135;50.702;7.276;2022-09-23T06:14:49;2.20;;;2.10;;
19946;SDS011;10135;50.702;7.276;2022-09-23T06:16:49;2.60;;;2.40;;
19946;SDS011;10135;50.702;7.276;2022-09-23T06:18:50;2.67;;;2.47;;
19946;SDS011;10135;50.702;7.276;2022-09-23T06:20:51;2.87;;;2.67;;
19946;SDS011;10135;50.702;7.276;2022-09-23T06:22:53;2.47;;;2.20;;
19946;SDS011;10135;50.702;7.276;2022-09-23T06:24:55;2.53;;;2.27;;
19946;SDS011;10135;50.702;7.276;2022-09-23T06:26:55;2.53;;;2.30;;
19946;SDS011;10135;50.702;7.276;2022-09-23T06:28:56;2.50;;;2.30;;
19946;SDS011;10135;50.702;7.276;2022-09-23T06:30:58;2.97;;;2.60;;
19946;SDS011;10135;50.702;7.276;2022-09-23T06:32:59;2.50;;;2.30;;
19946;SDS011;10135;50.702;7.276;2022-09-23T06:35:00;4.37;;;2.20;;
19946;SDS011;10135;50.702;7.276;2022-09-23T06:37:01;2.13;;;2.00;;
19946;SDS011;10135;50.702;7.276;2022-09-23T06:39:02;3.33;;;2.27;;
19946;SDS011;10135;50.702;7.276;2022-09-23T06:41:02;4.37;;;2.40;;
19946;SDS011;10135;50.702;7.276;2022-09-23T06:43:03;2.60;;;2.40;;
19946;SDS011;10135;50.702;7.276;2022-09-23T06:45:04;3.33;;;2.53;;
19946;SDS011;10135;50.702;7.276;2022-09-23T06:47:05;3.07;;;2.40;;
19946;SDS011;10135;50.702;7.276;2022-09-23T06:49:07;2.40;;;2.30;;
19946;SDS011;10135;50.702;7.276;2022-09-23T06:51:08;7.13;;;2.53;;
19946;SDS011;10135;50.702;7.276;2022-09-23T06:53:18;2.20;;;2.10;;
19946;SDS011;10135;50.702;7.276;2022-09-23T06:55:23;2.87;;;2.67;;
19946;SDS011;10135;50.702;7.276;2022-09-23T06:57:30;3.90;;;2.60;;
19946;SDS011;10135;50.702;7.276;2022-09-23T06:59:32;2.97;;;2.50;;
19946;SDS011;10135;50.702;7.276;2022-09-23T07:01:32;2.90;;;2.70;;
19946;SDS011;10135;50.702;7.276;2022-09-23T07:03:33;3.47;;;2.80;;
19946;SDS011;10135;50.702;7.276;2022-09-23T07:05:35;2.50;;;2.40;;
19946;SDS011;10135;50.702;7.276;2022-09-23T07:07:37;2.63;;;2.43;;
19946;SDS011;10135;50.702;7.276;2022-09-23T07:09:38;2.90;;;2.40;;
19946;SDS011;10135;50.702;7.276;2022-09-23T07:11:39;3.00;;;2.80;;
19946;SDS011;10135;50.702;7.276;2022-09-23T07:13:40;2.63;;;2.23;;
19946;SDS011;10135;50.702;7.276;2022-09-23T07:15:41;6.93;;;2.43;;
19946;SDS011;10135;50.702;7.276;2022-09-23T07:17:48;2.90;;;2.30;;
19946;SDS011;10135;50.702;7.276;2022-09-23T07:19:49;3.17;;;2.30;;
19946;SDS011;10135;50.702;7.276;2022-09-23T07:21:50;2.43;;;2.27;;
19946;SDS011;10135;50.702;7.276;2022-09-23T07:23:51;2.40;;;2.30;;
19946;SDS011;10135;50.702;7.276;2022-09-23T07:25:52;7.93;;;2.20;;
19946;SDS011;10135;50.702;7.276;2022-09-23T07:27:57;4.17;;;2.33;;
19946;SDS011;10135;50.702;7.276;2022-09-23T07:29:58;2.47;;;2.10;;
19946;SDS011;10135;50.702;7.276;2022-09-23T07:31:58;2.50;;;2.20;;
19946;SDS011;10135;50.702;7.276;2022-09-23T07:33:59;3.00;;;2.60;;
19946;SDS011;10135;50.702;7.276;2022-09-23T07:36:04;4.80;;;2.47;;
19946;SDS011;10135;50.702;7.276;2022-09-23T07:38:16;3.80;;;2.30;;
19946;SDS011;10135;50.702;7.276;2022-09-23T07:40:16;3.80;;;2.30;;
19946;SDS011;10135;50.702;7.276;2022-09-23T07:42:17;2.23;;;2.13;;
19946;SDS011;10135;50.702;7.276;2022-09-23T07:44:18;2.20;;;2.10;;
19946;SDS011;10135;50.702;7.276;2022-09-23T07:46:20;2.60;;;2.40;;
19946;SDS011;10135;50.702;7.276;2022-09-23T07:48:21;2.57;;;2.30;;
19946;SDS011;10135;50.702;7.276;2022-09-23T07:50:22;2.70;;;2.50;;
19946;SDS011;10135;50.702;7.276;2022-09-23T07:52:22;2.87;;;2.10;;
19946;SDS011;10135;50.702;7.276;2022-09-23T07:54:23;3.93;;;2.63;;
19946;SDS011;10135;50.702;7.276;2022-09-23T07:56:28;2.10;;;1.93;;
19946;SDS011;10135;50.702;7.276;2022-09-23T07:58:29;2.03;;;1.93;;
19946;SDS011;10135;50.702;7.276;2022-09-23T08:00:30;1.87;;;1.77;;
19946;SDS011;10135;50.702;7.276;2022-09-23T08:02:32;2.07;;;1.97;;
19946;SDS011;10135;50.702;7.276;2022-09-23T08:04:32;2.37;;;2.17;;
19946;SDS011;10135;50.702;7.276;2022-09-23T08:06:33;4.40;;;2.40;;
19946;SDS011;10135;50.702;7.276;2022-09-23T08:08:35;2.73;;;2.40;;
19946;SDS011;10135;50.702;7.276;2022-09-23T08:10:44;2.53;;;2.33;;
19946;SDS011;10135;50.702;7.276;2022-09-23T08:12:45;3.13;;;2.27;;
19946;SDS011;10135;50.702;7.276;2022-09-23T08:14:46;2.50;;;2.30;;
19946;SDS011;10135;50.702;7.276;2022-09-23T08:16:47;2.40;;;2.30;;
19946;SDS011;10135;50.702;7.276;2022-09-23T08:18:48;2.07;;;1.97;;
19946;SDS011;10135;50.702;7.276;2022-09-23T08:20:49;2.37;;;2.17;;
19946;SDS011;10135;50.702;7.276;2022-09-23T08:22:51;2.30;;;2.17;;
19946;SDS011;10135;50.702;7.276;2022-09-23T08:24:52;2.37;;;2.17;;
19946;SDS011;10135;50.702;7.276;2022-09-23T08:26:53;2.03;;;1.90;;
19946;SDS011;10135;50.702;7.276;2022-09-23T08:28:53;2.23;;;2.03;;
19946;SDS011;10135;50.702;7.276;2022-09-23T08:30:55;2.27;;;2.10;;
19946;SDS011;10135;50.702;7.276;2022-09-23T08:32:56;3.63;;;2.10;;
19946;SDS011;10135;50.702;7.276;2022-09-23T08:34:56;3.80;;;2.17;;
19946;SDS011;10135;50.702;7.276;2022-09-23T08:36:57;1.90;;;1.80;;
19946;SDS011;10135;50.702;7.276;2022-09-23T08:38:58;2.17;;;2.07;;
19946;SDS011;10135;50.702;7.276;2022-09-23T08:41:04;2.33;;;2.10;;
19946;SDS011;10135;50.702;7.276;2022-09-23T08:43:27;1.97;;;1.87;;
19946;SDS011;10135;50.702;7.276;2022-09-23T08:45:31;2.30;;;2.10;;
19946;SDS011;10135;50.702;7.276;2022-09-23T08:52:13;1.90;;;1.70;;
19946;SDS011;10135;50.702;7.276;2022-09-23T08:54:27;2.23;;;1.73;;
19946;SDS011;10135;50.702;7.276;2022-09-23T08:56:30;2.00;;;1.90;;
19946;SDS011;10135;50.702;7.276;2022-09-23T09:01:23;3.43;;;2.00;;
19946;SDS011;10135;50.702;7.276;2022-09-23T09:03:58;1.90;;;1.80;;
19946;SDS011;10135;50.702;7.276;2022-09-23T09:06:03;1.83;;;1.73;;
19946;SDS011;10135;50.702;7.276;2022-09-23T09:08:04;1.90;;;1.80;;
19946;SDS011;10135;50.702;7.276;2022-09-23T09:10:16;2.40;;;2.10;;
19946;SDS011;10135;50.702;7.276;2022-09-23T09:17:10;1.97;;;1.87;;
19946;SDS011;10135;50.702;7.276;2022-09-23T09:19:41;1.97;;;1.87;;
19946;SDS011;10135;50.702;7.276;2022-09-23T09:22:00;1.70;;;1.60;;
19946;SDS011;10135;50.702;7.276;2022-09-23T09:24:16;4.73;;;2.07;;
19946;SDS011;10135;50.702;7.276;2022-09-23T09:26:28;2.30;;;1.93;;
19946;SDS011;10135;50.702;7.276;2022-09-23T09:28:34;3.37;;;1.97;;
19946;SDS011;10135;50.702;7.276;2022-09-23T09:30:42;2.10;;;1.90;;
19946;SDS011;10135;50.702;7.276;2022-09-23T09:32:47;1.80;;;1.80;;
19946;SDS011;10135;50.702;7.276;2022-09-23T09:35:04;2.40;;;1.90;;
19946;SDS011;10135;50.702;7.276;2022-09-23T09:39:34;1.80;;;1.70;;
19946;SDS011;10135;50.702;7.276;2022-09-23T09:41:36;1.77;;;1.70;;
19946;SDS011;10135;50.702;7.276;2022-09-23T09:43:45;2.73;;;1.73;;
19946;SDS011;10135;50.702;7.276;2022-09-23T09:48:28;3.90;;;1.87;;
19946;SDS011;10135;50.702;7.276;2022-09-23T09:52:51;1.93;;;1.73;;
19946;SDS011;10135;50.702;7.276;2022-09-23T09:55:23;1.70;;;1.63;;
19946;SDS011;10135;50.702;7.276;2022-09-23T09:57:29;1.63;;;1.50;;
19946;SDS011;10135;50.702;7.276;2022-09-23T09:59:36;1.83;;;1.73;;
19946;SDS011;10135;50.702;7.276;2022-09-23T10:01:43;2.13;;;1.70;;
19946;SDS011;10135;50.702;7.276;2022-09-23T10:03:45;2.33;;;1.53;;
19946;SDS011;10135;50.702;7.276;2022-09-23T10:05:48;2.33;;;1.50;;
19946;SDS011;10135;50.702;7.276;2022-09-23T10:07:53;2.10;;;1.80;;
19946;SDS011;10135;50.702;7.276;2022-09-23T10:09:54;1.90;;;1.80;;
19946;SDS011;10135;50.702;7.276;2022-09-23T10:12:07;1.70;;;1.60;;
19946;SDS011;10135;50.702;7.276;2022-09-23T10:14:11;1.70;;;1.60;;
19946;SDS011;10135;50.702;7.276;2022-09-23T10:16:16;1.47;;;1.47;;
19946;SDS011;10135;50.702;7.276;2022-09-23T10:18:18;1.80;;;1.70;;
19946;SDS011;10135;50.702;7.276;2022-09-23T10:20:41;1.90;;;1.80;;
19946;SDS011;10135;50.702;7.276;2022-09-23T10:22:42;1.87;;;1.77;;
19946;SDS011;10135;50.702;7.276;2022-09-23T10:24:46;1.57;;;1.53;;
19946;SDS011;10135;50.702;7.276;2022-09-23T10:26:51;1.93;;;1.60;;
19946;SDS011;10135;50.702;7.276;2022-09-23T10:29:00;2.13;;;1.73;;
19946;SDS011;10135;50.702;7.276;2022-09-23T10:31:05;1.60;;;1.60;;
19946;SDS011;10135;50.702;7.276;2022-09-23T10:33:25;1.73;;;1.67;;
19946;SDS011;10135;50.702;7.276;2022-09-23T10:35:26;1.67;;;1.67;;
19946;SDS011;10135;50.702;7.276;2022-09-23T10:37:32;1.97;;;1.70;;
19946;SDS011;10135;50.702;7.276;2022-09-23T10:39:40;1.70;;;1.60;;
19946;SDS011;10135;50.702;7.276;2022-09-23T10:42:03;1.60;;;1.60;;
19946;SDS011;10135;50.702;7.276;2022-09-23T10:54:23;1.70;;;1.60;;
19946;SDS011;10135;50.702;7.276;2022-09-23T11:01:11;1.70;;;1.60;;
19946;SDS011;10135;50.702;7.276;2022-09-23T11:03:46;1.47;;;1.47;;
19946;SDS011;10135;50.702;7.276;2022-09-23T11:22:06;2.10;;;1.37;;
19946;SDS011;10135;50.702;7.276;2022-09-23T11:27:29;1.53;;;1.40;;
19946;SDS011;10135;50.702;7.276;2022-09-23T11:30:09;1.40;;;1.30;;
19946;SDS011;10135;50.702;7.276;2022-09-23T11:37:34;1.15;;;1.15;;
19946;SDS011;10135;50.702;7.276;2022-09-23T11:42:05;1.87;;;1.50;;
19946;SDS011;10135;50.702;7.276;2022-09-23T11:44:23;2.50;;;1.58;;
19946;SDS011;10135;50.702;7.276;2022-09-23T11:46:32;1.40;;;1.40;;
19946;SDS011;10135;50.702;7.276;2022-09-23T11:48:48;3.93;;;1.40;;
19946;SDS011;10135;50.702;7.276;2022-09-23T11:51:28;1.55;;;1.30;;
19946;SDS011;10135;50.702;7.276;2022-09-23T11:53:49;1.42;;;1.15;;
19946;SDS011;10135;50.702;7.276;2022-09-23T11:55:59;1.48;;;1.38;;
19946;SDS011;10135;50.702;7.276;2022-09-23T11:58:09;1.20;;;1.10;;
19946;SDS011;10135;50.702;7.276;2022-09-23T12:00:19;1.10;;;1.10;;
19946;SDS011;10135;50.702;7.276;2022-09-23T12:02:25;2.63;;;1.40;;
19946;SDS011;10135;50.702;7.276;2022-09-23T12:05:08;1.23;;;1.20;;
19946;SDS011;10135;50.702;7.276;2022-09-23T12:07:21;1.10;;;1.10;;
19946;SDS011;10135;50.702;7.276;2022-09-23T12:09:40;1.00;;;1.00;;
19946;SDS011;10135;50.702;7.276;2022-09-23T12:12:02;1.08;;;1.08;;
19946;SDS011;10135;50.702;7.276;2022-09-23T12:14:19;1.10;;;1.10;;
19946;SDS011;10135;50.702;7.276;2022-09-23T12:24:08;0.90;;;0.90;;
19946;SDS011;10135;50.702;7.276;2022-09-23T12:26:31;1.00;;;1.00;;
19946;SDS011;10135;50.702;7.276;2022-09-23T12:28:35;1.30;;;1.20;;
19946;SDS011;10135;50.702;7.276;2022-09-23T12:30:42;1.10;;;0.95;;
19946;SDS011;10135;50.702;7.276;2022-09-23T12:32:46;3.55;;;1.40;;
19946;SDS011;10135;50.702;7.276;2022-09-23T12:34:47;1.20;;;1.10;;
19946;SDS011;10135;50.702;7.276;2022-09-23T12:36:50;1.10;;;1.10;;
19946;SDS011;10135;50.702;7.276;2022-09-23T12:38:57;1.27;;;1.27;;
19946;SDS011;10135;50.702;7.276;2022-09-23T12:41:27;1.13;;;1.00;;
19946;SDS011;10135;50.702;7.276;2022-09-23T12:43:37;1.30;;;1.23;;
19946;SDS011;10135;50.702;7.276;2022-09-23T12:45:54;1.38;;;1.23;;
19946;SDS011;10135;50.702;7.276;2022-09-23T12:52:49;1.17;;;1.17;;
19946;SDS011;10135;50.702;7.276;2022-09-23T12:54:51;1.88;;;1.15;;
19946;SDS011;10135;50.702;7.276;2022-09-23T13:00:34;1.20;;;1.20;;
19946;SDS011;10135;50.702;7.276;2022-09-23T13:02:51;1.40;;;1.30;;
19946;SDS011;10135;50.702;7.276;2022-09-23T13:05:15;1.00;;;1.00;;
19946;SDS011;10135;50.702;7.276;2022-09-23T13:07:39;1.75;;;1.00;;
19946;SDS011;10135;50.702;7.276;2022-09-23T13:09:47;1.00;;;1.00;;
19946;SDS011;10135;50.702;7.276;2022-09-23T13:11:51;1.20;;;1.20;;
19946;SDS011;10135;50.702;7.276;2022-09-23T13:13:59;1.30;;;1.20;;
19946;SDS011;10135;50.702;7.276;2022-09-23T13:18:46;1.15;;;1.15;;
19946;SDS011;10135;50.702;7.276;2022-09-23T13:20:57;1.10;;;1.10;;
19946;SDS011;10135;50.702;7.276;2022-09-23T13:22:58;1.38;;;1.20;;
19946;SDS011;10135;50.702;7.276;2022-09-23T13:25:18;1.17;;;1.10;;
19946;SDS011;10135;50.702;7.276;2022-09-23T13:27:32;0.98;;;0.98;;
19946;SDS011;10135;50.702;7.276;2022-09-23T13:32:00;1.00;;;1.00;;
19946;SDS011;10135;50.702;7.276;2022-09-23T13:34:02;8.07;;;1.33;;
19946;SDS011;10135;50.702;7.276;2022-09-23T13:36:11;1.23;;;1.20;;
19946;SDS011;10135;50.702;7.276;2022-09-23T13:38:21;1.30;;;1.30;;
19946;SDS011;10135;50.702;7.276;2022-09-23T13:40:28;1.15;;;1.00;;
19946;SDS011;10135;50.702;7.276;2022-09-23T13:42:29;1.05;;;1.05;;
19946;SDS011;10135;50.702;7.276;2022-09-23T13:44:31;1.08;;;1.05;;
19946;SDS011;10135;50.702;7.276;2022-09-23T13:46:41;3.05;;;1.25;;
19946;SDS011;10135;50.702;7.276;2022-09-23T13:48:52;1.23;;;1.13;;
19946;SDS011;10135;50.702;7.276;2022-09-23T13:50:54;4.50;;;1.30;;
19946;SDS011;10135;50.702;7.276;2022-09-23T13:52:56;1.17;;;1.10;;
19946;SDS011;10135;50.702;7.276;2022-09-23T13:55:01;2.78;;;1.45;;
19946;SDS011;10135;50.702;7.276;2022-09-23T13:57:02;1.15;;;1.15;;
19946;SDS011;10135;50.702;7.276;2022-09-23T14:01:29;1.13;;;1.05;;
19946;SDS011;10135;50.702;7.276;2022-09-23T14:03:39;1.85;;;1.38;;
19946;SDS011;10135;50.702;7.276;2022-09-23T14:05:39;1.10;;;1.10;;
19946;SDS011;10135;50.702;7.276;2022-09-23T14:07:41;1.10;;;1.10;;
19946;SDS011;10135;50.702;7.276;2022-09-23T14:09:44;1.17;;;1.13;;
19946;SDS011;10135;50.702;7.276;2022-09-23T14:11:49;1.13;;;1.13;;
19946;SDS011;10135;50.702;7.276;2022-09-23T14:13:51;1.20;;;1.20;;
19946;SDS011;10135;50.702;7.276;2022-09-23T14:15:54;1.10;;;1.10;;
19946;SDS011;10135;50.702;7.276;2022-09-23T14:18:01;1.10;;;1.10;;
19946;SDS011;10135;50.702;7.276;2022-09-23T14:20:11;1.33;;;1.20;;
19946;SDS011;10135;50.702;7.276;2022-09-23T14:22:26;1.10;;;1.10;;
19946;SDS011;10135;50.702;7.276;2022-09-23T14:24:29;1.63;;;1.05;;
19946;SDS011;10135;50.702;7.276;2022-09-23T14:26:33;1.45;;;1.30;;
19946;SDS011;10135;50.702;7.276;2022-09-23T14:28:35;1.95;;;1.42;;
19946;SDS011;10135;50.702;7.276;2022-09-23T14:30:36;1.10;;;1.10;;
19946;SDS011;10135;50.702;7.276;2022-09-23T14:32:37;1.38;;;1.30;;
19946;SDS011;10135;50.702;7.276;2022-09-23T14:36:41;1.48;;;1.40;;
19946;SDS011;10135;50.702;7.276;2022-09-23T14:39:04;2.15;;;1.27;;
19946;SDS011;10135;50.702;7.276;2022-09-23T14:41:23;1.40;;;1.30;;
19946;SDS011;10135;50.702;7.276;2022-09-23T14:43:26;1.10;;;1.10;;
19946;SDS011;10135;50.702;7.276;2022-09-23T14:45:29;1.48;;;1.48;;
19946;SDS011;10135;50.702;7.276;2022-09-23T14:47:36;2.17;;;1.30;;
19946;SDS011;10135;50.702;7.276;2022-09-23T14:49:37;3.50;;;1.35;;
19946;SDS011;10135;50.702;7.276;2022-09-23T14:51:58;6.53;;;1.80;;
19946;SDS011;10135;50.702;7.276;2022-09-23T14:56:43;1.52;;;1.52;;
19946;SDS011;10135;50.702;7.276;2022-09-23T15:00:54;1.50;;;1.40;;
19946;SDS011;10135;50.702;7.276;2022-09-23T15:03:02;1.75;;;1.65;;
19946;SDS011;10135;50.702;7.276;2022-09-23T15:05:15;1.40;;;1.40;;
19946;SDS011;10135;50.702;7.276;2022-09-23T15:07:22;1.70;;;1.60;;
19946;SDS011;10135;50.702;7.276;2022-09-23T15:09:29;1.30;;;1.30;;
19946;SDS011;10135;50.702;7.276;2022-09-23T15:11:41;1.52;;;1.50;;
19946;SDS011;10135;50.702;7.276;2022-09-23T15:13:42;1.60;;;1.60;;
19946;SDS011;10135;50.702;7.276;2022-09-23T15:15:52;1.63;;;1.40;;
19946;SDS011;10135;50.702;7.276;2022-09-23T15:18:01;1.30;;;1.30;;
19946;SDS011;10135;50.702;7.276;2022-09-23T15:20:07;1.20;;;1.20;;
19946;SDS011;10135;50.702;7.276;2022-09-23T15:22:21;1.27;;;1.27;;
19946;SDS011;10135;50.702;7.276;2022-09-23T15:24:31;1.67;;;1.38;;
19946;SDS011;10135;50.702;7.276;2022-09-23T15:26:45;1.47;;;1.43;;
19946;SDS011;10135;50.702;7.276;2022-09-23T15:28:49;1.67;;;1.58;;
19946;SDS011;10135;50.702;7.276;2022-09-23T15:30:53;1.95;;;1.40;;
19946;SDS011;10135;50.702;7.276;2022-09-23T15:32:54;1.58;;;1.50;;
19946;SDS011;10135;50.702;7.276;2022-09-23T15:34:54;2.38;;;1.70;;
19946;SDS011;10135;50.702;7.276;2022-09-23T15:36:55;2.00;;;1.43;;
19946;SDS011;10135;50.702;7.276;2022-09-23T15:39:02;1.87;;;1.40;;
19946;SDS011;10135;50.702;7.276;2022-09-23T15:41:07;2.78;;;1.60;;
19946;SDS011;10135;50.702;7.276;2022-09-23T15:45:34;1.60;;;1.60;;
19946;SDS011;10135;50.702;7.276;2022-09-23T15:47:41;1.80;;;1.70;;
19946;SDS011;10135;50.702;7.276;2022-09-23T15:49:42;3.72;;;1.70;;
19946;SDS011;10135;50.702;7.276;2022-09-23T15:51:45;2.03;;;1.80;;
19946;SDS011;10135;50.702;7.276;2022-09-23T15:53:50;1.90;;;1.80;;
19946;SDS011;10135;50.702;7.276;2022-09-23T15:55:51;1.67;;;1.55;;
19946;SDS011;10135;50.702;7.276;2022-09-23T15:57:52;1.58;;;1.33;;
19946;SDS011;10135;50.702;7.276;2022-09-23T15:59:53;2.03;;;1.52;;
19946;SDS011;10135;50.702;7.276;2022-09-23T16:01:57;2.60;;;2.00;;
19946;SDS011;10135;50.702;7.276;2022-09-23T16:04:05;2.50;;;2.40;;
19946;SDS011;10135;50.702;7.276;2022-09-23T16:06:08;2.33;;;2.23;;
19946;SDS011;10135;50.702;7.276;2022-09-23T16:08:13;2.47;;;2.23;;
19946;SDS011;10135;50.702;7.276;2022-09-23T16:10:16;2.50;;;2.30;;
19946;SDS011;10135;50.702;7.276;2022-09-23T16:12:18;2.40;;;2.10;;
19946;SDS011;10135;50.702;7.276;2022-09-23T16:14:19;2.38;;;2.25;;
19946;SDS011;10135;50.702;7.276;2022-09-23T16:16:20;2.00;;;1.90;;
19946;SDS011;10135;50.702;7.276;2022-09-23T16:18:20;3.40;;;2.17;;
19946;SDS011;10135;50.702;7.276;2022-09-23T16:20:24;1.93;;;1.83;;
19946;SDS011;10135;50.702;7.276;2022-09-23T16:22:28;7.10;;;2.10;;
19946;SDS011;10135;50.702;7.276;2022-09-23T16:24:29;1.80;;;1.70;;
19946;SDS011;10135;50.702;7.276;2022-09-23T16:26:31;3.55;;;2.00;;
19946;SDS011;10135;50.702;7.276;2022-09-23T16:28:34;2.50;;;1.90;;
19946;SDS011;10135;50.702;7.276;2022-09-23T16:30:35;1.80;;;1.70;;
19946;SDS011;10135;50.702;7.276;2022-09-23T16:32:36;2.40;;;1.80;;
19946;SDS011;10135;50.702;7.276;2022-09-23T16:34:37;1.60;;;1.50;;
19946;SDS011;10135;50.702;7.276;2022-09-23T16:36:38;1.90;;;1.80;;
19946;SDS011;10135;50.702;7.276;2022-09-23T16:38:42;3.33;;;1.90;;
19946;SDS011;10135;50.702;7.276;2022-09-23T16:40:42;1.73;;;1.70;;
19946;SDS011;10135;50.702;7.276;2022-09-23T16:42:43;4.13;;;1.80;;
19946;SDS011;10135;50.702;7.276;2022-09-23T16:44:45;2.03;;;1.70;;
19946;SDS011;10135;50.702;7.276;2022-09-23T16:46:46;1.80;;;1.70;;
19946;SDS011;10135;50.702;7.276;2022-09-23T16:48:47;1.80;;;1.70;;
19946;SDS011;10135;50.702;7.276;2022-09-23T16:50:48;2.27;;;2.00;;
19946;SDS011;10135;50.702;7.276;2022-09-23T16:52:52;1.60;;;1.60;;
19946;SDS011;10135;50.702;7.276;2022-09-23T16:54:55;1.90;;;1.80;;
19946;SDS011;10135;50.702;7.276;2022-09-23T16:56:55;1.83;;;1.70;;
19946;SDS011;10135;50.702;7.276;2022-09-23T16:58:57;4.13;;;1.77;;
19946;SDS011;10135;50.702;7.276;2022-09-23T17:00:58;1.63;;;1.53;;
19946;SDS011;10135;50.702;7.276;2022-09-23T17:03:17;1.87;;;1.60;;
19946;SDS011;10135;50.702;7.276;2022-09-23T17:05:36;1.80;;;1.70;;
19946;SDS011;10135;50.702;7.276;2022-09-23T17:07:36;1.93;;;1.83;;
19946;SDS011;10135;50.702;7.276;2022-09-23T17:09:37;3.30;;;1.83;;
19946;SDS011;10135;50.702;7.276;2022-09-23T17:11:38;3.13;;;1.70;;
19946;SDS011;10135;50.702;7.276;2022-09-23T17:13:39;1.93;;;1.80;;
19946;SDS011;10135;50.702;7.276;2022-09-23T17:15:41;1.90;;;1.50;;
19946;SDS011;10135;50.702;7.276;2022-09-23T17:17:42;1.80;;;1.70;;
19946;SDS011;10135;50.702;7.276;2022-09-23T17:19:43;2.53;;;1.80;;
19946;SDS011;10135;50.702;7.276;2022-09-23T17:21:44;1.63;;;1.50;;
19946;SDS011;10135;50.702;7.276;2022-09-23T17:23:45;1.60;;;1.50;;
19946;SDS011;10135;50.702;7.276;2022-09-23T17:25:46;1.70;;;1.63;;
19946;SDS011;10135;50.702;7.276;2022-09-23T17:27:48;1.73;;;1.70;;
19946;SDS011;10135;50.702;7.276;2022-09-23T17:29:49;1.80;;;1.70;;
19946;SDS011;10135;50.702;7.276;2022-09-23T17:31:49;2.50;;;1.90;;
19946;SDS011;10135;50.702;7.276;2022-09-23T17:33:50;2.10;;;2.00;;
19946;SDS011;10135;50.702;7.276;2022-09-23T17:35:52;2.80;;;2.60;;
19946;SDS011;10135;50.702;7.276;2022-09-23T17:37:53;2.20;;;2.10;;
19946;SDS011;10135;50.702;7.276;2022-09-23T17:39:54;5.43;;;2.23;;
19946;SDS011;10135;50.702;7.276;2022-09-23T17:41:54;3.33;;;2.30;;
19946;SDS011;10135;50.702;7.276;2022-09-23T17:43:56;8.90;;;2.83;;
19946;SDS011;10135;50.702;7.276;2022-09-23T17:46:00;3.73;;;3.37;;
19946;SDS011;10135;50.702;7.276;2022-09-23T17:48:10;6.73;;;2.67;;
19946;SDS011;10135;50.702;7.276;2022-09-23T17:50:11;3.17;;;2.90;;
19946;SDS011;10135;50.702;7.276;2022-09-23T17:52:14;3.23;;;2.87;;
19946;SDS011;10135;50.702;7.276;2022-09-23T17:54:16;3.30;;;2.57;;
19946;SDS011;10135;50.702;7.276;2022-09-23T17:56:20;3.20;;;2.87;;
19946;SDS011;10135;50.702;7.276;2022-09-23T17:58:29;3.30;;;2.87;;
19946;SDS011;10135;50.702;7.276;2022-09-23T18:00:33;2.97;;;2.67;;
19946;SDS011;10135;50.702;7.276;2022-09-23T18:02:34;5.77;;;4.67;;
19946;SDS011;10135;50.702;7.276;2022-09-23T18:04:34;5.50;;;4.07;;
19946;SDS011;10135;50.702;7.276;2022-09-23T18:06:35;4.87;;;3.73;;
19946;SDS011;10135;50.702;7.276;2022-09-23T18:08:37;5.40;;;3.63;;
19946;SDS011;10135;50.702;7.276;2022-09-23T18:10:39;9.23;;;5.07;;
19946;SDS011;10135;50.702;7.276;2022-09-23T18:12:40;6.23;;;3.90;;
19946;SDS011;10135;50.702;7.276;2022-09-23T18:14:40;4.90;;;3.53;;
19946;SDS011;10135;50.702;7.276;2022-09-23T18:16:42;5.17;;;3.50;;
19946;SDS011;10135;50.702;7.276;2022-09-23T18:18:52;3.93;;;3.10;;
19946;SDS011;10135;50.702;7.276;2022-09-23T18:20:59;3.30;;;3.10;;
19946;SDS011;10135;50.702;7.276;2022-09-23T18:23:01;4.17;;;2.80;;
19946;SDS011;10135;50.702;7.276;2022-09-23T18:25:02;3.07;;;2.77;;
19946;SDS011;10135;50.702;7.276;2022-09-23T18:27:03;4.23;;;2.73;;
19946;SDS011;10135;50.702;7.276;2022-09-23T18:29:05;8.53;;;3.37;;
19946;SDS011;10135;50.702;7.276;2022-09-23T18:31:06;5.80;;;5.20;;
19946;SDS011;10135;50.702;7.276;2022-09-23T18:33:07;4.07;;;3.67;;
19946;SDS011;10135;50.702;7.276;2022-09-23T18:35:08;4.10;;;3.70;;
19946;SDS011;10135;50.702;7.276;2022-09-23T18:37:09;4.20;;;3.23;;
19946;SDS011;10135;50.702;7.276;2022-09-23T18:39:10;3.13;;;2.93;;
19946;SDS011;10135;50.702;7.276;2022-09-23T18:41:11;3.30;;;3.00;;
19946;SDS011;10135;50.702;7.276;2022-09-23T18:43:12;3.33;;;3.03;;
19946;SDS011;10135;50.702;7.276;2022-09-23T18:45:13;4.07;;;3.30;;
19946;SDS011;10135;50.702;7.276;2022-09-23T18:47:14;3.70;;;2.67;;
19946;SDS011;10135;50.702;7.276;2022-09-23T18:49:35;2.83;;;2.63;;
19946;SDS011;10135;50.702;7.276;2022-09-23T18:51:58;2.53;;;2.33;;
19946;SDS011;10135;50.702;7.276;2022-09-23T18:54:00;2.73;;;2.53;;
19946;SDS011;10135;50.702;7.276;2022-09-23T18:56:12;2.83;;;2.60;;
19946;SDS011;10135;50.702;7.276;2022-09-23T18:58:16;2.30;;;2.20;;
19946;SDS011;10135;50.702;7.276;2022-09-23T19:00:16;2.53;;;2.33;;
19946;SDS011;10135;50.702;7.276;2022-09-23T19:02:18;3.43;;;2.80;;
19946;SDS011;10135;50.702;7.276;2022-09-23T19:04:19;3.30;;;2.43;;
19946;SDS011;10135;50.702;7.276;2022-09-23T19:06:21;2.80;;;2.60;;
19946;SDS011;10135;50.702;7.276;2022-09-23T19:08:22;2.77;;;2.57;;
19946;SDS011;10135;50.702;7.276;2022-09-23T19:10:23;3.17;;;2.70;;
19946;SDS011;10135;50.702;7.276;2022-09-23T19:12:23;2.70;;;2.43;;
19946;SDS011;10135;50.702;7.276;2022-09-23T19:14:24;2.70;;;2.50;;
19946;SDS011;10135;50.702;7.276;2022-09-23T19:16:25;2.80;;;2.60;;
19946;SDS011;10135;50.702;7.276;2022-09-23T19:18:26;2.80;;;2.60;;
19946;SDS011;10135;50.702;7.276;2022-09-23T19:20:27;2.90;;;2.40;;
19946;SDS011;10135;50.702;7.276;2022-09-23T19:22:28;2.70;;;2.50;;
19946;SDS011;10135;50.702;7.276;2022-09-23T19:24:31;2.57;;;2.37;;
19946;SDS011;10135;50.702;7.276;2022-09-23T19:26:33;2.93;;;2.53;;
19946;SDS011;10135;50.702;7.276;2022-09-23T19:28:37;2.57;;;2.47;;
19946;SDS011;10135;50.702;7.276;2022-09-23T19:30:39;6.87;;;2.53;;
19946;SDS011;10135;50.702;7.276;2022-09-23T19:32:42;3.13;;;2.60;;
19946;SDS011;10135;50.702;7.276;2022-09-23T19:34:44;2.30;;;2.07;;
19946;SDS011;10135;50.702;7.276;2022-09-23T19:36:45;3.50;;;2.70;;
19946;SDS011;10135;50.702;7.276;2022-09-23T19:38:46;2.60;;;2.10;;
19946;SDS011;10135;50.702;7.276;2022-09-23T19:40:47;2.73;;;2.53;;